sensor_id;sensor_type;location;lat;lon;timestamp;P1;durP1;ratioP1;P2;durP2;ratioP2
59474;SDS011;45288;51.136;16.928;2022-12-18T00:02:06;56.35;;;25.20;;
59474;SDS011;45288;51.136;16.928;2022-12-18T00:04:32;54.03;;;24.80;;
59474;SDS011;45288;51.136;16.928;2022-12-18T00:06:58;54.72;;;24.13;;
59474;SDS011;45288;51.136;16.928;2022-12-18T00:09:24;50.63;;;22.75;;
59474;SDS011;45288;51.136;16.928;2022-12-18T00:11:49;52.58;;;22.27;;
59474;SDS011;45288;51.136;16.928;2022-12-18T00:14:17;49.28;;;22.35;;
59474;SDS011;45288;51.136;16.928;2022-12-18T00:16:44;50.00;;;22.10;;
59474;SDS011;45288;51.136;16.928;2022-12-18T00:19:11;51.53;;;22.42;;
59474;SDS011;45288;51.136;16.928;2022-12-18T00:21:40;53.47;;;23.58;;
59474;SDS011;45288;51.136;16.928;2022-12-18T00:24:07;48.30;;;20.67;;
59474;SDS011;45288;51.136;16.928;2022-12-18T00:26:33;46.65;;;20.45;;
59474;SDS011;45288;51.136;16.928;2022-12-18T00:29:02;49.42;;;21.50;;
59474;SDS011;45288;51.136;16.928;2022-12-18T00:31:29;49.95;;;21.63;;
59474;SDS011;45288;51.136;16.928;2022-12-18T00:33:55;47.42;;;21.02;;
59474;SDS011;45288;51.136;16.928;2022-12-18T00:36:23;49.55;;;21.95;;
59474;SDS011;45288;51.136;16.928;2022-12-18T00:38:57;52.83;;;23.55;;
59474;SDS011;45288;51.136;16.928;2022-12-18T00:41:23;56.80;;;24.45;;
59474;SDS011;45288;51.136;16.928;2022-12-18T00:44:10;57.00;;;23.92;;
59474;SDS011;45288;51.136;16.928;2022-12-18T00:46:36;60.20;;;25.48;;
59474;SDS011;45288;51.136;16.928;2022-12-18T00:49:03;58.25;;;25.05;;
59474;SDS011;45288;51.136;16.928;2022-12-18T00:51:30;52.20;;;23.25;;
59474;SDS011;45288;51.136;16.928;2022-12-18T00:53:56;52.43;;;24.67;;
59474;SDS011;45288;51.136;16.928;2022-12-18T00:56:27;59.72;;;24.98;;
59474;SDS011;45288;51.136;16.928;2022-12-18T00:58:54;51.05;;;22.38;;
59474;SDS011;45288;51.136;16.928;2022-12-18T01:01:20;48.42;;;19.98;;
59474;SDS011;45288;51.136;16.928;2022-12-18T01:03:46;46.17;;;20.80;;
59474;SDS011;45288;51.136;16.928;2022-12-18T01:06:13;43.92;;;20.35;;
59474;SDS011;45288;51.136;16.928;2022-12-18T01:08:39;45.33;;;21.65;;
59474;SDS011;45288;51.136;16.928;2022-12-18T01:11:07;52.60;;;23.30;;
59474;SDS011;45288;51.136;16.928;2022-12-18T01:13:33;46.40;;;21.83;;
59474;SDS011;45288;51.136;16.928;2022-12-18T01:15:59;45.35;;;20.65;;
59474;SDS011;45288;51.136;16.928;2022-12-18T01:18:24;51.53;;;22.63;;
59474;SDS011;45288;51.136;16.928;2022-12-18T01:20:50;50.97;;;23.03;;
59474;SDS011;45288;51.136;16.928;2022-12-18T01:23:17;50.30;;;22.52;;
59474;SDS011;45288;51.136;16.928;2022-12-18T01:25:44;47.47;;;21.27;;
59474;SDS011;45288;51.136;16.928;2022-12-18T01:28:11;46.38;;;21.40;;
59474;SDS011;45288;51.136;16.928;2022-12-18T01:30:37;43.37;;;19.73;;
59474;SDS011;45288;51.136;16.928;2022-12-18T01:33:06;43.13;;;20.13;;
59474;SDS011;45288;51.136;16.928;2022-12-18T01:35:43;44.90;;;20.15;;
59474;SDS011;45288;51.136;16.928;2022-12-18T01:38:09;46.03;;;19.92;;
59474;SDS011;45288;51.136;16.928;2022-12-18T01:40:36;45.85;;;21.70;;
59474;SDS011;45288;51.136;16.928;2022-12-18T01:43:02;47.73;;;21.33;;
59474;SDS011;45288;51.136;16.928;2022-12-18T01:45:28;48.83;;;22.20;;
59474;SDS011;45288;51.136;16.928;2022-12-18T01:47:58;44.22;;;20.45;;
59474;SDS011;45288;51.136;16.928;2022-12-18T01:50:32;44.97;;;21.48;;
59474;SDS011;45288;51.136;16.928;2022-12-18T01:53:04;46.72;;;22.55;;
59474;SDS011;45288;51.136;16.928;2022-12-18T01:55:38;47.70;;;21.95;;
59474;SDS011;45288;51.136;16.928;2022-12-18T01:58:06;49.40;;;21.88;;
59474;SDS011;45288;51.136;16.928;2022-12-18T02:00:32;40.72;;;19.33;;
59474;SDS011;45288;51.136;16.928;2022-12-18T02:02:59;41.90;;;19.40;;
59474;SDS011;45288;51.136;16.928;2022-12-18T02:08:08;48.72;;;22.75;;
59474;SDS011;45288;51.136;16.928;2022-12-18T02:13:29;45.65;;;21.05;;
59474;SDS011;45288;51.136;16.928;2022-12-18T02:18:28;48.08;;;22.38;;
59474;SDS011;45288;51.136;16.928;2022-12-18T02:28:55;47.45;;;22.48;;
59474;SDS011;45288;51.136;16.928;2022-12-18T02:31:26;44.90;;;19.80;;
59474;SDS011;45288;51.136;16.928;2022-12-18T02:33:55;44.63;;;21.33;;
59474;SDS011;45288;51.136;16.928;2022-12-18T02:36:21;44.67;;;20.67;;
59474;SDS011;45288;51.136;16.928;2022-12-18T02:38:49;46.33;;;20.83;;
59474;SDS011;45288;51.136;16.928;2022-12-18T02:41:16;40.53;;;19.90;;
59474;SDS011;45288;51.136;16.928;2022-12-18T02:43:53;42.67;;;19.73;;
59474;SDS011;45288;51.136;16.928;2022-12-18T02:46:27;43.33;;;20.10;;
59474;SDS011;45288;51.136;16.928;2022-12-18T02:48:56;41.45;;;20.23;;
59474;SDS011;45288;51.136;16.928;2022-12-18T02:51:26;43.33;;;20.20;;
59474;SDS011;45288;51.136;16.928;2022-12-18T02:53:58;43.45;;;21.50;;
59474;SDS011;45288;51.136;16.928;2022-12-18T02:56:38;48.92;;;23.17;;
59474;SDS011;45288;51.136;16.928;2022-12-18T02:59:08;46.22;;;23.02;;
59474;SDS011;45288;51.136;16.928;2022-12-18T03:04:23;41.72;;;20.00;;
59474;SDS011;45288;51.136;16.928;2022-12-18T03:06:53;44.45;;;21.08;;
59474;SDS011;45288;51.136;16.928;2022-12-18T03:09:30;49.35;;;22.25;;
59474;SDS011;45288;51.136;16.928;2022-12-18T03:12:05;47.10;;;21.58;;
59474;SDS011;45288;51.136;16.928;2022-12-18T03:14:51;44.90;;;21.60;;
59474;SDS011;45288;51.136;16.928;2022-12-18T03:17:22;45.95;;;21.45;;
59474;SDS011;45288;51.136;16.928;2022-12-18T03:19:50;48.28;;;21.77;;
59474;SDS011;45288;51.136;16.928;2022-12-18T03:22:16;47.03;;;21.33;;
59474;SDS011;45288;51.136;16.928;2022-12-18T03:24:48;47.47;;;20.73;;
59474;SDS011;45288;51.136;16.928;2022-12-18T03:27:17;43.05;;;20.15;;
59474;SDS011;45288;51.136;16.928;2022-12-18T03:29:52;43.70;;;19.73;;
59474;SDS011;45288;51.136;16.928;2022-12-18T03:32:26;38.80;;;19.80;;
59474;SDS011;45288;51.136;16.928;2022-12-18T03:34:57;38.83;;;18.90;;
59474;SDS011;45288;51.136;16.928;2022-12-18T03:37:32;42.05;;;20.67;;
59474;SDS011;45288;51.136;16.928;2022-12-18T03:39:58;44.85;;;20.90;;
59474;SDS011;45288;51.136;16.928;2022-12-18T03:50:32;44.08;;;21.67;;
59474;SDS011;45288;51.136;16.928;2022-12-18T03:55:30;45.45;;;19.95;;
59474;SDS011;45288;51.136;16.928;2022-12-18T03:58:04;42.77;;;19.53;;
59474;SDS011;45288;51.136;16.928;2022-12-18T04:00:44;41.20;;;19.85;;
59474;SDS011;45288;51.136;16.928;2022-12-18T04:03:11;41.45;;;19.80;;
59474;SDS011;45288;51.136;16.928;2022-12-18T04:05:44;41.00;;;20.77;;
59474;SDS011;45288;51.136;16.928;2022-12-18T04:08:14;45.85;;;21.20;;
59474;SDS011;45288;51.136;16.928;2022-12-18T04:10:48;41.83;;;20.33;;
59474;SDS011;45288;51.136;16.928;2022-12-18T04:13:29;46.50;;;20.98;;
59474;SDS011;45288;51.136;16.928;2022-12-18T04:15:57;37.75;;;18.30;;
59474;SDS011;45288;51.136;16.928;2022-12-18T04:18:25;42.73;;;19.63;;
59474;SDS011;45288;51.136;16.928;2022-12-18T04:20:52;42.05;;;20.70;;
59474;SDS011;45288;51.136;16.928;2022-12-18T04:23:18;44.92;;;22.20;;
59474;SDS011;45288;51.136;16.928;2022-12-18T04:25:45;46.10;;;21.35;;
59474;SDS011;45288;51.136;16.928;2022-12-18T04:28:16;45.35;;;21.40;;
59474;SDS011;45288;51.136;16.928;2022-12-18T04:30:42;42.72;;;20.33;;
59474;SDS011;45288;51.136;16.928;2022-12-18T04:33:08;45.80;;;20.80;;
59474;SDS011;45288;51.136;16.928;2022-12-18T04:35:37;43.47;;;20.48;;
59474;SDS011;45288;51.136;16.928;2022-12-18T04:38:09;43.30;;;20.40;;
59474;SDS011;45288;51.136;16.928;2022-12-18T04:40:38;40.30;;;19.80;;
59474;SDS011;45288;51.136;16.928;2022-12-18T04:43:10;47.05;;;21.67;;
59474;SDS011;45288;51.136;16.928;2022-12-18T04:45:36;46.92;;;21.67;;
59474;SDS011;45288;51.136;16.928;2022-12-18T04:48:02;41.22;;;20.23;;
59474;SDS011;45288;51.136;16.928;2022-12-18T04:50:28;41.50;;;19.80;;
59474;SDS011;45288;51.136;16.928;2022-12-18T04:52:54;40.40;;;20.30;;
59474;SDS011;45288;51.136;16.928;2022-12-18T04:55:20;42.85;;;19.50;;
59474;SDS011;45288;51.136;16.928;2022-12-18T04:57:47;44.05;;;20.48;;
59474;SDS011;45288;51.136;16.928;2022-12-18T05:00:14;44.42;;;20.70;;
59474;SDS011;45288;51.136;16.928;2022-12-18T05:02:40;44.17;;;21.13;;
59474;SDS011;45288;51.136;16.928;2022-12-18T05:05:06;43.30;;;21.87;;
59474;SDS011;45288;51.136;16.928;2022-12-18T05:07:32;43.60;;;22.07;;
59474;SDS011;45288;51.136;16.928;2022-12-18T05:09:59;45.47;;;22.45;;
59474;SDS011;45288;51.136;16.928;2022-12-18T05:12:25;42.55;;;22.00;;
59474;SDS011;45288;51.136;16.928;2022-12-18T05:14:51;46.35;;;22.73;;
59474;SDS011;45288;51.136;16.928;2022-12-18T05:17:17;46.40;;;21.10;;
59474;SDS011;45288;51.136;16.928;2022-12-18T05:19:45;41.72;;;19.45;;
59474;SDS011;45288;51.136;16.928;2022-12-18T05:22:12;43.55;;;20.85;;
59474;SDS011;45288;51.136;16.928;2022-12-18T05:24:38;44.90;;;21.60;;
59474;SDS011;45288;51.136;16.928;2022-12-18T05:27:04;44.57;;;21.73;;
59474;SDS011;45288;51.136;16.928;2022-12-18T05:29:30;46.70;;;21.63;;
59474;SDS011;45288;51.136;16.928;2022-12-18T05:31:56;43.97;;;21.10;;
59474;SDS011;45288;51.136;16.928;2022-12-18T05:34:22;45.95;;;22.88;;
59474;SDS011;45288;51.136;16.928;2022-12-18T05:36:48;46.92;;;21.60;;
59474;SDS011;45288;51.136;16.928;2022-12-18T05:39:14;40.77;;;19.83;;
59474;SDS011;45288;51.136;16.928;2022-12-18T05:41:39;45.20;;;20.43;;
59474;SDS011;45288;51.136;16.928;2022-12-18T05:44:05;39.00;;;20.08;;
59474;SDS011;45288;51.136;16.928;2022-12-18T05:46:32;41.45;;;20.20;;
59474;SDS011;45288;51.136;16.928;2022-12-18T05:49:00;39.87;;;19.50;;
59474;SDS011;45288;51.136;16.928;2022-12-18T05:51:26;45.33;;;21.35;;
59474;SDS011;45288;51.136;16.928;2022-12-18T05:53:53;43.00;;;19.60;;
59474;SDS011;45288;51.136;16.928;2022-12-18T05:56:20;40.53;;;18.85;;
59474;SDS011;45288;51.136;16.928;2022-12-18T05:58:46;42.30;;;19.92;;
59474;SDS011;45288;51.136;16.928;2022-12-18T06:01:14;42.22;;;20.35;;
59474;SDS011;45288;51.136;16.928;2022-12-18T06:03:41;38.80;;;19.98;;
59474;SDS011;45288;51.136;16.928;2022-12-18T06:06:17;41.33;;;20.77;;
59474;SDS011;45288;51.136;16.928;2022-12-18T06:08:43;40.90;;;20.60;;
59474;SDS011;45288;51.136;16.928;2022-12-18T06:11:10;42.50;;;21.70;;
59474;SDS011;45288;51.136;16.928;2022-12-18T06:13:36;43.80;;;22.20;;
59474;SDS011;45288;51.136;16.928;2022-12-18T06:16:04;44.80;;;22.45;;
59474;SDS011;45288;51.136;16.928;2022-12-18T06:18:31;42.70;;;22.42;;
59474;SDS011;45288;51.136;16.928;2022-12-18T06:20:58;46.85;;;23.67;;
59474;SDS011;45288;51.136;16.928;2022-12-18T06:23:23;46.10;;;23.53;;
59474;SDS011;45288;51.136;16.928;2022-12-18T06:25:51;49.20;;;24.83;;
59474;SDS011;45288;51.136;16.928;2022-12-18T06:28:18;50.28;;;24.77;;
59474;SDS011;45288;51.136;16.928;2022-12-18T06:30:46;48.78;;;24.85;;
59474;SDS011;45288;51.136;16.928;2022-12-18T06:33:14;49.28;;;24.35;;
59474;SDS011;45288;51.136;16.928;2022-12-18T06:35:40;49.30;;;24.60;;
59474;SDS011;45288;51.136;16.928;2022-12-18T06:38:07;50.28;;;24.35;;
59474;SDS011;45288;51.136;16.928;2022-12-18T06:40:36;51.65;;;26.08;;
59474;SDS011;45288;51.136;16.928;2022-12-18T06:43:02;53.80;;;26.10;;
59474;SDS011;45288;51.136;16.928;2022-12-18T06:45:28;53.58;;;26.23;;
59474;SDS011;45288;51.136;16.928;2022-12-18T06:47:54;56.43;;;26.77;;
59474;SDS011;45288;51.136;16.928;2022-12-18T06:50:20;53.25;;;26.27;;
59474;SDS011;45288;51.136;16.928;2022-12-18T06:52:48;52.65;;;25.73;;
59474;SDS011;45288;51.136;16.928;2022-12-18T06:55:15;53.40;;;26.23;;
59474;SDS011;45288;51.136;16.928;2022-12-18T06:57:41;57.60;;;26.57;;
59474;SDS011;45288;51.136;16.928;2022-12-18T07:00:07;52.27;;;26.77;;
59474;SDS011;45288;51.136;16.928;2022-12-18T07:02:33;53.67;;;25.75;;
59474;SDS011;45288;51.136;16.928;2022-12-18T07:04:58;54.95;;;26.02;;
59474;SDS011;45288;51.136;16.928;2022-12-18T07:07:25;58.27;;;27.10;;
59474;SDS011;45288;51.136;16.928;2022-12-18T07:09:51;53.40;;;26.77;;
59474;SDS011;45288;51.136;16.928;2022-12-18T07:12:21;56.50;;;27.52;;
59474;SDS011;45288;51.136;16.928;2022-12-18T07:14:50;56.53;;;28.00;;
59474;SDS011;45288;51.136;16.928;2022-12-18T07:17:16;60.07;;;27.77;;
59474;SDS011;45288;51.136;16.928;2022-12-18T07:19:42;59.50;;;28.07;;
59474;SDS011;45288;51.136;16.928;2022-12-18T07:22:08;54.80;;;26.90;;
59474;SDS011;45288;51.136;16.928;2022-12-18T07:24:35;54.10;;;27.17;;
59474;SDS011;45288;51.136;16.928;2022-12-18T07:27:01;57.28;;;28.02;;
59474;SDS011;45288;51.136;16.928;2022-12-18T07:29:29;53.58;;;27.10;;
59474;SDS011;45288;51.136;16.928;2022-12-18T07:31:55;53.90;;;27.47;;
59474;SDS011;45288;51.136;16.928;2022-12-18T07:34:21;52.38;;;25.80;;
59474;SDS011;45288;51.136;16.928;2022-12-18T07:36:48;48.77;;;26.20;;
59474;SDS011;45288;51.136;16.928;2022-12-18T07:39:14;48.50;;;25.77;;
59474;SDS011;45288;51.136;16.928;2022-12-18T07:41:41;51.28;;;26.10;;
59474;SDS011;45288;51.136;16.928;2022-12-18T07:44:32;46.05;;;23.33;;
59474;SDS011;45288;51.136;16.928;2022-12-18T07:47:01;42.78;;;22.70;;
59474;SDS011;45288;51.136;16.928;2022-12-18T07:49:27;39.95;;;21.13;;
59474;SDS011;45288;51.136;16.928;2022-12-18T07:51:54;43.63;;;21.90;;
59474;SDS011;45288;51.136;16.928;2022-12-18T07:54:20;40.20;;;21.48;;
59474;SDS011;45288;51.136;16.928;2022-12-18T07:56:45;42.80;;;22.20;;
59474;SDS011;45288;51.136;16.928;2022-12-18T07:59:11;41.30;;;21.52;;
59474;SDS011;45288;51.136;16.928;2022-12-18T08:01:38;43.20;;;21.65;;
59474;SDS011;45288;51.136;16.928;2022-12-18T08:04:04;40.67;;;21.33;;
59474;SDS011;45288;51.136;16.928;2022-12-18T08:06:31;40.50;;;21.63;;
59474;SDS011;45288;51.136;16.928;2022-12-18T08:08:58;39.20;;;21.00;;
59474;SDS011;45288;51.136;16.928;2022-12-18T08:11:24;39.47;;;21.80;;
59474;SDS011;45288;51.136;16.928;2022-12-18T08:13:50;38.15;;;20.60;;
59474;SDS011;45288;51.136;16.928;2022-12-18T08:16:16;39.20;;;20.50;;
59474;SDS011;45288;51.136;16.928;2022-12-18T08:18:42;37.50;;;20.27;;
59474;SDS011;45288;51.136;16.928;2022-12-18T08:21:11;41.30;;;21.35;;
59474;SDS011;45288;51.136;16.928;2022-12-18T08:23:37;39.03;;;22.52;;
59474;SDS011;45288;51.136;16.928;2022-12-18T08:26:04;41.75;;;22.52;;
59474;SDS011;45288;51.136;16.928;2022-12-18T08:28:32;41.80;;;22.52;;
59474;SDS011;45288;51.136;16.928;2022-12-18T08:30:58;41.50;;;21.83;;
59474;SDS011;45288;51.136;16.928;2022-12-18T08:33:24;43.30;;;23.70;;
59474;SDS011;45288;51.136;16.928;2022-12-18T08:35:51;47.10;;;24.52;;
59474;SDS011;45288;51.136;16.928;2022-12-18T08:38:17;46.00;;;24.55;;
59474;SDS011;45288;51.136;16.928;2022-12-18T08:40:44;43.50;;;23.40;;
59474;SDS011;45288;51.136;16.928;2022-12-18T08:43:10;45.15;;;24.15;;
59474;SDS011;45288;51.136;16.928;2022-12-18T08:45:54;45.38;;;23.75;;
59474;SDS011;45288;51.136;16.928;2022-12-18T08:48:21;48.25;;;24.50;;
59474;SDS011;45288;51.136;16.928;2022-12-18T08:50:56;42.35;;;23.40;;
59474;SDS011;45288;51.136;16.928;2022-12-18T08:53:24;45.95;;;24.42;;
59474;SDS011;45288;51.136;16.928;2022-12-18T08:55:49;51.30;;;25.25;;
59474;SDS011;45288;51.136;16.928;2022-12-18T08:58:16;42.17;;;23.23;;
59474;SDS011;45288;51.136;16.928;2022-12-18T09:00:43;43.17;;;23.17;;
59474;SDS011;45288;51.136;16.928;2022-12-18T09:03:12;44.33;;;22.35;;
59474;SDS011;45288;51.136;16.928;2022-12-18T09:05:39;42.33;;;22.15;;
59474;SDS011;45288;51.136;16.928;2022-12-18T09:08:06;43.97;;;22.90;;
59474;SDS011;45288;51.136;16.928;2022-12-18T09:10:31;41.65;;;22.75;;
59474;SDS011;45288;51.136;16.928;2022-12-18T09:12:57;42.83;;;23.30;;
59474;SDS011;45288;51.136;16.928;2022-12-18T09:15:24;44.50;;;23.52;;
59474;SDS011;45288;51.136;16.928;2022-12-18T09:17:50;42.33;;;22.00;;
59474;SDS011;45288;51.136;16.928;2022-12-18T09:20:18;41.67;;;21.73;;
59474;SDS011;45288;51.136;16.928;2022-12-18T09:22:50;45.50;;;22.27;;
59474;SDS011;45288;51.136;16.928;2022-12-18T09:25:16;46.57;;;25.00;;
59474;SDS011;45288;51.136;16.928;2022-12-18T09:27:46;44.40;;;23.30;;
59474;SDS011;45288;51.136;16.928;2022-12-18T09:30:12;43.13;;;22.30;;
59474;SDS011;45288;51.136;16.928;2022-12-18T09:32:38;41.28;;;22.85;;
59474;SDS011;45288;51.136;16.928;2022-12-18T09:35:04;42.95;;;22.77;;
59474;SDS011;45288;51.136;16.928;2022-12-18T09:37:32;44.10;;;22.03;;
59474;SDS011;45288;51.136;16.928;2022-12-18T09:39:57;42.10;;;23.38;;
59474;SDS011;45288;51.136;16.928;2022-12-18T09:42:29;41.22;;;22.30;;
59474;SDS011;45288;51.136;16.928;2022-12-18T09:44:54;43.30;;;23.08;;
59474;SDS011;45288;51.136;16.928;2022-12-18T09:47:34;42.72;;;23.15;;
59474;SDS011;45288;51.136;16.928;2022-12-18T09:50:04;43.65;;;22.83;;
59474;SDS011;45288;51.136;16.928;2022-12-18T09:52:37;44.40;;;22.80;;
59474;SDS011;45288;51.136;16.928;2022-12-18T09:55:06;44.05;;;22.63;;
59474;SDS011;45288;51.136;16.928;2022-12-18T09:57:40;41.35;;;22.35;;
59474;SDS011;45288;51.136;16.928;2022-12-18T10:00:21;40.90;;;22.15;;
59474;SDS011;45288;51.136;16.928;2022-12-18T10:02:47;40.78;;;20.58;;
59474;SDS011;45288;51.136;16.928;2022-12-18T10:05:19;43.67;;;22.75;;
59474;SDS011;45288;51.136;16.928;2022-12-18T10:13:08;44.17;;;23.10;;
59474;SDS011;45288;51.136;16.928;2022-12-18T10:26:26;44.38;;;23.10;;
59474;SDS011;45288;51.136;16.928;2022-12-18T10:28:54;45.53;;;23.20;;
59474;SDS011;45288;51.136;16.928;2022-12-18T10:31:23;44.03;;;22.40;;
59474;SDS011;45288;51.136;16.928;2022-12-18T10:33:49;41.97;;;21.50;;
59474;SDS011;45288;51.136;16.928;2022-12-18T10:36:16;46.25;;;22.40;;
59474;SDS011;45288;51.136;16.928;2022-12-18T10:38:43;48.30;;;23.23;;
59474;SDS011;45288;51.136;16.928;2022-12-18T10:44:11;48.50;;;23.27;;
59474;SDS011;45288;51.136;16.928;2022-12-18T10:46:40;44.30;;;23.08;;
59474;SDS011;45288;51.136;16.928;2022-12-18T10:49:17;44.60;;;23.27;;
59474;SDS011;45288;51.136;16.928;2022-12-18T10:51:43;48.50;;;23.73;;
59474;SDS011;45288;51.136;16.928;2022-12-18T10:54:20;46.55;;;23.60;;
59474;SDS011;45288;51.136;16.928;2022-12-18T10:56:47;48.25;;;23.75;;
59474;SDS011;45288;51.136;16.928;2022-12-18T10:59:14;50.17;;;24.30;;
59474;SDS011;45288;51.136;16.928;2022-12-18T11:01:50;47.28;;;23.35;;
59474;SDS011;45288;51.136;16.928;2022-12-18T11:04:19;47.92;;;24.45;;
59474;SDS011;45288;51.136;16.928;2022-12-18T11:06:52;49.53;;;23.48;;
59474;SDS011;45288;51.136;16.928;2022-12-18T11:09:20;49.10;;;24.03;;
59474;SDS011;45288;51.136;16.928;2022-12-18T11:11:50;54.45;;;24.88;;
59474;SDS011;45288;51.136;16.928;2022-12-18T11:14:23;48.63;;;24.33;;
59474;SDS011;45288;51.136;16.928;2022-12-18T11:16:49;49.25;;;24.52;;
59474;SDS011;45288;51.136;16.928;2022-12-18T11:19:35;52.47;;;25.05;;
59474;SDS011;45288;51.136;16.928;2022-12-18T11:22:17;52.92;;;26.13;;
59474;SDS011;45288;51.136;16.928;2022-12-18T11:24:53;53.85;;;26.52;;
59474;SDS011;45288;51.136;16.928;2022-12-18T11:27:20;56.00;;;27.27;;
59474;SDS011;45288;51.136;16.928;2022-12-18T11:29:46;58.33;;;27.27;;
59474;SDS011;45288;51.136;16.928;2022-12-18T11:34:42;53.43;;;27.00;;
59474;SDS011;45288;51.136;16.928;2022-12-18T11:37:10;55.72;;;26.52;;
59474;SDS011;45288;51.136;16.928;2022-12-18T11:39:40;55.45;;;25.90;;
59474;SDS011;45288;51.136;16.928;2022-12-18T11:42:24;44.60;;;21.45;;
59474;SDS011;45288;51.136;16.928;2022-12-18T11:44:58;43.42;;;21.15;;
59474;SDS011;45288;51.136;16.928;2022-12-18T11:50:12;43.60;;;21.63;;
59474;SDS011;45288;51.136;16.928;2022-12-18T11:52:39;44.03;;;21.77;;
59474;SDS011;45288;51.136;16.928;2022-12-18T11:55:13;39.60;;;20.83;;
59474;SDS011;45288;51.136;16.928;2022-12-18T12:00:15;44.00;;;20.92;;
59474;SDS011;45288;51.136;16.928;2022-12-18T12:05:33;39.30;;;19.60;;
59474;SDS011;45288;51.136;16.928;2022-12-18T12:08:16;38.85;;;19.63;;
59474;SDS011;45288;51.136;16.928;2022-12-18T12:16:17;42.38;;;21.20;;
59474;SDS011;45288;51.136;16.928;2022-12-18T12:21:26;45.87;;;21.77;;
59474;SDS011;45288;51.136;16.928;2022-12-18T12:24:00;44.50;;;22.25;;
59474;SDS011;45288;51.136;16.928;2022-12-18T12:29:01;46.42;;;22.50;;
59474;SDS011;45288;51.136;16.928;2022-12-18T12:36:31;48.60;;;23.87;;
59474;SDS011;45288;51.136;16.928;2022-12-18T12:39:10;54.50;;;24.38;;
59474;SDS011;45288;51.136;16.928;2022-12-18T12:41:39;55.93;;;24.70;;
59474;SDS011;45288;51.136;16.928;2022-12-18T12:44:29;50.63;;;24.65;;
59474;SDS011;45288;51.136;16.928;2022-12-18T12:46:57;57.70;;;25.80;;
59474;SDS011;45288;51.136;16.928;2022-12-18T12:49:26;54.55;;;26.05;;
59474;SDS011;45288;51.136;16.928;2022-12-18T12:51:56;55.65;;;25.30;;
59474;SDS011;45288;51.136;16.928;2022-12-18T12:54:26;52.70;;;25.30;;
59474;SDS011;45288;51.136;16.928;2022-12-18T12:56:57;55.50;;;26.17;;
59474;SDS011;45288;51.136;16.928;2022-12-18T13:06:58;54.00;;;25.33;;
59474;SDS011;45288;51.136;16.928;2022-12-18T13:09:29;55.40;;;26.17;;
59474;SDS011;45288;51.136;16.928;2022-12-18T13:12:01;54.13;;;25.50;;
59474;SDS011;45288;51.136;16.928;2022-12-18T13:14:47;55.20;;;26.48;;
59474;SDS011;45288;51.136;16.928;2022-12-18T13:19:43;53.88;;;26.17;;
59474;SDS011;45288;51.136;16.928;2022-12-18T13:22:25;58.20;;;27.03;;
59474;SDS011;45288;51.136;16.928;2022-12-18T13:24:53;55.00;;;25.92;;
59474;SDS011;45288;51.136;16.928;2022-12-18T13:33:14;57.60;;;26.10;;
59474;SDS011;45288;51.136;16.928;2022-12-18T13:35:37;60.20;;;28.48;;
59474;SDS011;45288;51.136;16.928;2022-12-18T13:40:52;60.88;;;27.63;;
59474;SDS011;45288;51.136;16.928;2022-12-18T13:48:36;58.53;;;28.63;;
59474;SDS011;45288;51.136;16.928;2022-12-18T13:51:04;67.75;;;28.80;;
59474;SDS011;45288;51.136;16.928;2022-12-18T13:53:46;57.65;;;28.73;;
59474;SDS011;45288;51.136;16.928;2022-12-18T13:56:16;62.90;;;28.17;;
59474;SDS011;45288;51.136;16.928;2022-12-18T13:58:46;63.63;;;29.48;;
59474;SDS011;45288;51.136;16.928;2022-12-18T14:01:22;62.95;;;29.73;;
59474;SDS011;45288;51.136;16.928;2022-12-18T14:04:08;62.22;;;29.05;;
59474;SDS011;45288;51.136;16.928;2022-12-18T14:06:34;63.65;;;30.58;;
59474;SDS011;45288;51.136;16.928;2022-12-18T14:09:00;64.28;;;30.42;;
59474;SDS011;45288;51.136;16.928;2022-12-18T14:11:29;65.30;;;29.40;;
59474;SDS011;45288;51.136;16.928;2022-12-18T14:13:55;66.25;;;31.02;;
59474;SDS011;45288;51.136;16.928;2022-12-18T14:16:22;65.88;;;32.30;;
59474;SDS011;45288;51.136;16.928;2022-12-18T14:18:55;64.22;;;29.95;;
59474;SDS011;45288;51.136;16.928;2022-12-18T14:21:22;64.53;;;29.35;;
59474;SDS011;45288;51.136;16.928;2022-12-18T14:24:13;65.03;;;30.87;;
59474;SDS011;45288;51.136;16.928;2022-12-18T14:26:40;64.55;;;28.77;;
59474;SDS011;45288;51.136;16.928;2022-12-18T14:32:05;63.38;;;29.33;;
59474;SDS011;45288;51.136;16.928;2022-12-18T14:34:32;61.60;;;30.48;;
59474;SDS011;45288;51.136;16.928;2022-12-18T14:36:58;63.20;;;30.25;;
59474;SDS011;45288;51.136;16.928;2022-12-18T14:39:28;60.95;;;29.60;;
59474;SDS011;45288;51.136;16.928;2022-12-18T14:41:54;69.97;;;31.80;;
59474;SDS011;45288;51.136;16.928;2022-12-18T14:44:20;64.90;;;29.77;;
59474;SDS011;45288;51.136;16.928;2022-12-18T14:46:47;60.00;;;28.75;;
59474;SDS011;45288;51.136;16.928;2022-12-18T14:51:47;67.03;;;31.57;;
59474;SDS011;45288;51.136;16.928;2022-12-18T14:54:18;62.95;;;29.80;;
59474;SDS011;45288;51.136;16.928;2022-12-18T14:56:45;67.70;;;31.25;;
59474;SDS011;45288;51.136;16.928;2022-12-18T15:01:44;64.40;;;30.20;;
59474;SDS011;45288;51.136;16.928;2022-12-18T15:04:26;61.75;;;29.40;;
59474;SDS011;45288;51.136;16.928;2022-12-18T15:09:38;68.43;;;30.63;;
59474;SDS011;45288;51.136;16.928;2022-12-18T15:12:04;70.00;;;31.08;;
59474;SDS011;45288;51.136;16.928;2022-12-18T15:17:18;69.60;;;31.88;;
59474;SDS011;45288;51.136;16.928;2022-12-18T15:19:44;63.83;;;29.45;;
59474;SDS011;45288;51.136;16.928;2022-12-18T15:24:43;66.97;;;30.33;;
59474;SDS011;45288;51.136;16.928;2022-12-18T15:27:24;71.60;;;32.00;;
59474;SDS011;45288;51.136;16.928;2022-12-18T15:30:00;70.00;;;30.70;;
59474;SDS011;45288;51.136;16.928;2022-12-18T15:32:26;63.78;;;28.30;;
59474;SDS011;45288;51.136;16.928;2022-12-18T15:35:02;64.15;;;30.40;;
59474;SDS011;45288;51.136;16.928;2022-12-18T15:37:30;65.07;;;30.17;;
59474;SDS011;45288;51.136;16.928;2022-12-18T15:39:56;65.03;;;29.88;;
59474;SDS011;45288;51.136;16.928;2022-12-18T15:42:21;69.15;;;28.33;;
59474;SDS011;45288;51.136;16.928;2022-12-18T15:45:10;66.80;;;29.40;;
59474;SDS011;45288;51.136;16.928;2022-12-18T15:47:39;70.43;;;29.90;;
59474;SDS011;45288;51.136;16.928;2022-12-18T15:50:07;65.45;;;29.50;;
59474;SDS011;45288;51.136;16.928;2022-12-18T15:52:39;63.72;;;27.23;;
59474;SDS011;45288;51.136;16.928;2022-12-18T15:55:09;61.95;;;27.30;;
59474;SDS011;45288;51.136;16.928;2022-12-18T15:57:59;64.43;;;27.77;;
59474;SDS011;45288;51.136;16.928;2022-12-18T16:00:25;71.05;;;30.48;;
59474;SDS011;45288;51.136;16.928;2022-12-18T16:02:50;64.20;;;30.10;;
59474;SDS011;45288;51.136;16.928;2022-12-18T16:05:20;64.30;;;30.10;;
59474;SDS011;45288;51.136;16.928;2022-12-18T16:07:50;64.00;;;30.10;;
59474;SDS011;45288;51.136;16.928;2022-12-18T16:10:18;70.57;;;31.27;;
59474;SDS011;45288;51.136;16.928;2022-12-18T16:12:44;67.53;;;30.95;;
59474;SDS011;45288;51.136;16.928;2022-12-18T16:15:10;72.43;;;32.65;;